Time;durP1;ratioP1;P1;durP2;ratioP2;P2;SDS_P1;SDS_P2;PMS_P1;PMS_P2;Temp;Humidity;BMP_temperature;BMP_pressure;BME280_temperature;BME280_humidity;BME280_pressure;Samples;Min_cycle;Max_cycle;Signal;HPM_P1;HPM_P2
2022/09/15 00:00:08;;;;;;;9.93;4.97;;;;;;;20.30;100.00;152757.47;1714116;83;20974;-73
2022/09/15 00:02:35;;;;;;;11.60;5.10;;;;;;;20.29;100.00;152754.86;1713743;83;21109;-73
2022/09/15 00:05:02;;;;;;;12.30;5.67;;;;;;;20.28;100.00;152752.25;1713935;82;21607;-59
2022/09/15 00:07:30;;;;;;;8.45;4.17;;;;;;;20.30;100.00;152757.47;1726402;82;21545;-59
2022/09/15 00:09:56;;;;;;;7.67;4.30;;;;;;;20.30;100.00;152757.47;1748076;82;20994;-60
2022/09/15 00:12:23;;;;;;;10.85;3.87;;;;;;;20.31;100.00;152758.75;1747998;82;21590;-60
2022/09/15 00:14:50;;;;;;;9.78;4.28;;;;;;;20.32;100.00;152761.38;1748568;82;21027;-72
2022/09/15 00:17:19;;;;;;;6.42;3.83;;;;;;;20.34;100.00;152766.63;1748316;82;21548;-72
2022/09/15 00:19:45;;;;;;;6.33;3.65;;;;;;;20.37;100.00;152773.14;1748665;82;21045;-72
2022/09/15 00:22:13;;;;;;;8.98;4.00;;;;;;;20.38;100.00;152775.75;1748554;82;21030;-72
2022/09/15 00:24:40;;;;;;;7.80;3.35;;;;;;;20.39;98.87;152778.36;1748645;82;21226;-72
2022/09/15 00:27:07;;;;;;;8.35;3.42;;;;;;;20.41;98.50;152783.58;1748406;82;21599;-72
2022/09/15 00:29:34;;;;;;;8.88;4.20;;;;;;;20.42;98.01;152786.19;1748428;82;21042;-60
2022/09/15 00:32:02;;;;;;;4.92;3.75;;;;;;;20.43;97.87;152788.80;1698411;82;20944;-60
2022/09/15 00:34:29;;;;;;;8.28;4.50;;;;;;;20.44;98.22;152791.41;1742090;82;21090;-60
2022/09/15 00:36:55;;;;;;;10.13;3.95;;;;;;;20.44;98.44;152791.41;1742039;82;21303;-72
2022/09/15 00:39:22;;;;;;;13.20;4.50;;;;;;;20.44;98.67;152791.41;1742094;82;21018;-73
2022/09/15 00:41:49;;;;;;;11.45;3.92;;;;;;;20.44;98.71;152792.73;1742117;80;21029;-73
2022/09/15 00:44:21;;;;;;;13.20;4.30;;;;;;;20.44;98.56;152791.41;1741907;82;21010;-72
2022/09/15 00:46:51;;;;;;;12.15;4.15;;;;;;;20.44;98.40;152791.41;1742448;81;21072;-72
2022/09/15 00:49:25;;;;;;;11.08;4.03;;;;;;;20.44;98.14;152792.73;1741884;81;22009;-60
2022/09/15 00:52:13;;;;;;;9.28;3.83;;;;;;;20.45;97.96;152794.06;1742263;82;21059;-61
2022/09/15 00:55:10;;;;;;;10.18;4.15;;;;;;;20.46;98.06;152796.67;1741944;81;21006;-61
2022/09/15 00:57:52;;;;;;;11.00;4.75;;;;;;;20.44;98.31;152791.41;1741677;81;21017;-60
2022/09/15 01:00:21;;;;;;;10.55;4.25;;;;;;;20.42;98.65;152787.52;1739651;82;21042;-60
2022/09/15 01:02:47;;;;;;;9.75;4.33;;;;;;;20.43;98.95;152788.80;1741746;82;21205;-60
2022/09/15 01:05:17;;;;;;;10.32;4.10;;;;;;;20.42;98.89;152786.19;1741766;82;21439;-72
2022/09/15 01:08:00;;;;;;;10.82;4.70;;;;;;;20.41;98.61;152783.58;1741628;81;21105;-72
2022/09/15 01:10:31;;;;;;;13.03;3.87;;;;;;;20.41;97.90;152783.58;1741540;82;21119;-73
2022/09/15 01:13:05;;;;;;;8.58;4.25;;;;;;;20.42;97.27;152786.19;1741786;81;21095;-72
2022/09/15 01:15:56;;;;;;;8.40;4.12;;;;;;;20.41;96.37;152784.91;1741876;81;21943;-72
2022/09/15 01:19:06;;;;;;;9.68;3.90;;;;;;;20.42;95.62;152786.19;1741357;81;20946;-73
2022/09/15 01:21:50;;;;;;;14.80;4.50;;;;;;;20.43;94.98;152788.80;1742047;82;21069;-73
2022/09/15 01:25:11;;;;;;;9.40;3.72;;;;;;;20.42;94.51;152786.19;1741889;81;20999;-73
2022/09/15 01:27:55;;;;;;;10.10;4.00;;;;;;;20.42;94.09;152787.52;1703660;84;20953;-61
2022/09/15 01:30:23;;;;;;;12.20;3.52;;;;;;;20.40;93.89;152782.30;1704141;84;21138;-60
2022/09/15 01:33:16;;;;;;;9.48;3.80;;;;;;;20.38;93.72;152775.75;1704248;82;21144;-60
2022/09/15 01:36:12;;;;;;;16.75;4.53;;;;;;;20.35;93.33;152769.25;1707093;82;21471;-60
2022/09/15 01:38:50;;;;;;;11.80;4.53;;;;;;;20.32;92.67;152762.69;1725103;83;21045;-60
2022/09/15 01:41:45;;;;;;;12.03;4.30;;;;;;;20.30;91.87;152757.47;1690314;84;21036;-60
2022/09/15 01:44:19;;;;;;;13.85;5.10;;;;;;;20.27;90.57;152749.64;1690356;84;21241;-60
2022/09/15 01:46:49;;;;;;;9.55;4.22;;;;;;;20.25;89.49;152744.42;1690430;84;20976;-60
2022/09/15 01:49:19;;;;;;;14.07;3.62;;;;;;;20.23;88.14;152739.20;1690272;84;21530;-61
2022/09/15 01:51:48;;;;;;;7.53;3.60;;;;;;;20.21;86.54;152733.94;1690663;84;20987;-60
2022/09/15 01:54:14;;;;;;;8.63;3.22;;;;;;;20.20;85.30;152731.31;1690411;84;21497;-60
2022/09/15 01:56:42;;;;;;;8.35;3.20;;;;;;;20.22;84.38;152736.55;1690355;84;21290;-60
2022/09/15 01:59:09;;;;;;;7.83;3.27;;;;;;;20.21;83.05;152733.94;1690325;84;21039;-61
2022/09/15 02:01:43;;;;;;;8.03;3.30;;;;;;;20.22;82.42;152735.27;1690361;84;21099;-61
2022/09/15 02:04:17;;;;;;;9.43;3.55;;;;;;;20.21;82.05;152733.94;1690395;84;21107;-61
2022/09/15 02:06:52;;;;;;;;;;;;;;;20.21;80.26;152733.94;1694769;83;21109;-60
2022/09/15 02:09:29;;;;;;;7.87;3.00;;;;;;;20.21;79.65;152732.66;1719940;82;21804;-61
2022/09/15 02:12:23;;;;;;;10.48;3.55;;;;;;;20.21;79.21;152733.94;1720329;82;21026;-60
2022/09/15 02:15:02;;;;;;;10.53;3.25;;;;;;;20.23;78.65;152737.88;1719702;82;21114;-60
2022/09/15 02:17:31;;;;;;;7.12;3.35;;;;;;;20.22;78.61;152736.55;1720101;82;21254;-61
2022/09/15 02:20:15;;;;;;;5.85;2.90;;;;;;;20.21;78.34;152733.94;1719925;83;21054;-61
2022/09/15 02:22:48;;;;;;;7.35;2.98;;;;;;;20.21;78.10;152733.94;1720177;82;21273;-60
2022/09/15 02:25:24;;;;;;;4.83;2.87;;;;;;;20.19;77.91;152728.72;1719723;82;21514;-61
2022/09/15 02:27:52;;;;;;;9.48;3.33;;;;;;;20.20;77.89;152730.03;1713465;83;21082;-60
2022/09/15 02:30:19;;;;;;;12.95;3.50;;;;;;;20.21;77.92;152733.94;1714471;83;21054;-60
2022/09/15 02:32:55;;;;;;;8.20;3.75;;;;;;;20.18;78.10;152727.44;1697896;83;21471;-60
2022/09/15 02:35:23;;;;;;;8.98;3.55;;;;;;;20.18;78.35;152726.09;1688928;84;21914;-59
2022/09/15 02:37:50;;;;;;;11.60;4.10;;;;;;;20.14;78.52;152717.00;1689456;84;21492;-60
2022/09/15 02:40:18;;;;;;;8.13;3.72;;;;;;;20.12;78.63;152711.77;1688825;84;21106;-60
2022/09/15 02:43:00;;;;;;;5.03;3.10;;;;;;;20.11;78.58;152707.83;1689535;84;21401;-60
2022/09/15 02:45:29;;;;;;;10.60;4.05;;;;;;;20.09;78.66;152702.61;1689129;84;21098;-59
2022/09/15 02:47:59;;;;;;;11.60;3.90;;;;;;;20.09;78.79;152702.61;1689475;84;21953;-59
2022/09/15 02:50:26;;;;;;;8.30;3.37;;;;;;;20.09;78.89;152702.61;1688835;84;21312;-60
2022/09/15 02:52:54;;;;;;;12.70;3.37;;;;;;;20.09;79.08;152702.61;1688987;84;21117;-60
2022/09/15 02:55:21;;;;;;;7.20;3.20;;;;;;;20.07;79.30;152697.39;1688918;84;21045;-60
2022/09/15 02:57:48;;;;;;;5.47;2.70;;;;;;;20.07;79.34;152697.39;1688813;84;21074;-60
2022/09/15 03:00:15;;;;;;;4.60;2.80;;;;;;;20.07;79.32;152697.39;1689015;84;21492;-61
2022/09/15 03:02:51;;;;;;;3.95;2.70;;;;;;;20.08;79.34;152700.00;1689083;84;21327;-70
2022/09/15 03:05:22;;;;;;;9.80;2.95;;;;;;;20.07;79.25;152697.39;1689282;84;20994;-69
2022/09/15 03:07:48;;;;;;;6.08;2.92;;;;;;;20.07;79.39;152698.67;1704466;83;21634;-70
2022/09/15 03:10:16;;;;;;;6.72;3.00;;;;;;;20.08;79.65;152700.00;1719915;83;21125;-71
2022/09/15 03:12:46;;;;;;;7.35;2.90;;;;;;;20.07;80.00;152698.67;1719977;83;22149;-70
2022/09/15 03:15:15;;;;;;;8.58;2.98;;;;;;;20.07;80.37;152697.39;1719991;83;22095;-70
2022/09/15 03:17:44;;;;;;;9.28;3.10;;;;;;;20.07;80.66;152697.39;1720122;83;20975;-70
2022/09/15 03:20:14;;;;;;;5.33;2.75;;;;;;;20.07;80.82;152697.39;1720296;83;21049;-70
2022/09/15 03:22:40;;;;;;;10.38;2.83;;;;;;;20.05;80.59;152693.45;1719936;83;21424;-71
2022/09/15 03:25:09;;;;;;;7.00;2.70;;;;;;;20.06;80.57;152694.78;1720068;83;21400;-70
2022/09/15 03:27:36;;;;;;;8.00;3.02;;;;;;;20.07;80.41;152697.39;1719737;83;21512;-71
2022/09/15 03:30:05;;;;;;;9.53;3.02;;;;;;;20.06;80.47;152694.78;1719801;83;21006;-71
2022/09/15 03:32:32;;;;;;;5.60;2.60;;;;;;;20.06;80.49;152694.78;1700900;83;21508;-70
2022/09/15 03:34:58;;;;;;;4.72;2.35;;;;;;;20.07;80.58;152697.39;1673977;84;21493;-71
2022/09/15 03:37:25;;;;;;;7.28;2.65;;;;;;;20.08;80.86;152700.00;1668813;86;21268;-71
2022/09/15 03:39:52;;;;;;;10.08;3.25;;;;;;;20.11;81.12;152707.83;1668771;86;21119;-71
2022/09/15 03:42:20;;;;;;;6.12;2.60;;;;;;;20.11;81.44;152709.11;1668477;86;20976;-60
2022/09/15 03:44:47;;;;;;;8.08;3.75;;;;;;;20.12;81.99;152710.44;1669140;86;21007;-71
2022/09/15 03:47:13;;;;;;;6.95;2.75;;;;;;;20.11;82.49;152707.83;1668700;86;21075;-72
2022/09/15 03:49:40;;;;;;;8.20;2.95;;;;;;;20.10;82.92;152705.22;1668831;86;21244;-72
2022/09/15 03:52:09;;;;;;;6.28;3.20;;;;;;;20.10;83.46;152705.22;1668880;86;20951;-61
2022/09/15 03:54:36;;;;;;;6.40;3.00;;;;;;;20.11;84.15;152707.83;1668758;86;21107;-60
2022/09/15 03:57:03;;;;;;;9.53;3.45;;;;;;;20.12;84.71;152710.44;1668704;86;21545;-61
2022/09/15 03:59:31;;;;;;;8.43;2.80;;;;;;;20.15;85.20;152719.59;1668603;86;21106;-59
2022/09/15 04:01:57;;;;;;;6.67;3.17;;;;;;;20.21;85.29;152732.66;1668650;86;21449;-60
2022/09/15 04:04:24;;;;;;;5.80;2.98;;;;;;;20.24;85.75;152740.48;1668619;86;21095;-60
2022/09/15 04:06:52;;;;;;;7.65;3.22;;;;;;;20.24;85.98;152741.81;1671342;84;21473;-60
2022/09/15 04:09:20;;;;;;;6.95;3.10;;;;;;;20.24;86.03;152740.48;1693445;83;21066;-60
2022/09/15 04:11:47;;;;;;;5.25;2.90;;;;;;;20.25;86.05;152744.42;1694143;84;21054;-61
2022/09/15 04:14:15;;;;;;;10.05;3.00;;;;;;;20.26;85.90;152745.70;1693832;84;21261;-60
2022/09/15 04:16:42;;;;;;;12.50;3.33;;;;;;;20.26;85.68;152747.03;1694426;83;21020;-59
2022/09/15 04:19:09;;;;;;;6.55;2.90;;;;;;;20.27;85.20;152749.64;1693885;83;21633;-60
2022/09/15 04:21:36;;;;;;;9.00;3.00;;;;;;;20.29;84.69;152753.53;1693809;83;21043;-61
2022/09/15 04:24:04;;;;;;;9.28;2.98;;;;;;;20.32;83.98;152761.38;1693827;84;21038;-60
2022/09/15 04:26:33;;;;;;;8.18;2.95;;;;;;;20.35;83.48;152769.25;1693911;84;21923;-71
2022/09/15 04:29:01;;;;;;;10.48;3.12;;;;;;;20.39;83.68;152778.36;1694141;84;21041;-72
2022/09/15 04:31:27;;;;;;;7.70;2.98;;;;;;;20.42;83.60;152787.52;1693838;84;21051;-60
2022/09/15 04:33:55;;;;;;;7.17;3.02;;;;;;;20.45;83.31;152794.06;1693784;83;21688;-59
2022/09/15 04:36:23;;;;;;;8.63;2.50;;;;;;;20.48;82.83;152801.91;1693722;84;21115;-59
2022/09/15 04:38:50;;;;;;;5.80;2.77;;;;;;;20.52;82.12;152812.34;1693859;83;21864;-59
2022/09/15 04:41:18;;;;;;;8.40;2.52;;;;;;;20.57;80.97;152825.39;1693989;84;21457;-59
2022/09/15 04:43:45;;;;;;;8.88;2.72;;;;;;;20.61;80.06;152835.84;1693944;84;20977;-59
2022/09/15 04:46:13;;;;;;;8.35;2.37;;;;;;;20.67;79.38;152848.89;1693833;84;21067;-58
2022/09/15 04:48:42;;;;;;;3.65;2.20;;;;;;;20.73;78.15;152864.61;1693909;84;21004;-70
2022/09/15 04:51:18;;;;;;;7.35;2.75;;;;;;;20.77;76.79;152875.05;1693850;84;21113;-59
2022/09/15 04:53:46;;;;;;;4.10;2.40;;;;;;;20.80;75.70;152881.66;1693869;84;21419;-59
2022/09/15 04:56:18;;;;;;;5.15;2.55;;;;;;;20.83;75.64;152890.77;1693826;84;21043;-60
2022/09/15 04:58:47;;;;;;;8.63;2.75;;;;;;;20.84;75.15;152893.38;1693925;84;20976;-60
2022/09/15 05:01:18;;;;;;;7.30;2.50;;;;;;;20.86;74.21;152898.59;1694040;84;21066;-59
2022/09/15 05:03:45;;;;;;;7.10;2.60;;;;;;;20.87;73.48;152901.22;1693875;83;21206;-71
2022/09/15 05:06:18;;;;;;;8.83;2.65;;;;;;;20.89;72.85;152906.48;1693889;84;21028;-71
2022/09/15 05:08:50;;;;;;;9.75;2.60;;;;;;;20.95;72.36;152919.53;1694473;84;20910;-69
2022/09/15 05:11:17;;;;;;;6.62;2.35;;;;;;;21.00;72.54;152932.59;1747652;82;20983;-70
2022/09/15 05:13:44;;;;;;;7.47;3.20;;;;;;;21.06;72.98;152946.98;1747428;82;21364;-71
2022/09/15 05:16:14;;;;;;;4.65;2.47;;;;;;;21.14;73.24;152969.20;1747348;82;22255;-70
2022/09/15 05:18:42;;;;;;;6.83;2.55;;;;;;;21.21;73.21;152984.88;1747014;82;21084;-71
2022/09/15 05:21:10;;;;;;;8.13;2.60;;;;;;;21.32;72.36;153013.61;1736791;81;21079;-71
2022/09/15 05:23:39;;;;;;;7.65;2.60;;;;;;;21.41;71.30;153035.83;1728956;81;21024;-70
2022/09/15 05:26:10;;;;;;;6.72;2.70;;;;;;;21.47;70.98;153052.83;1740668;81;21004;-70
2022/09/15 05:28:37;;;;;;;8.85;2.72;;;;;;;21.51;70.46;153060.67;1738220;81;23055;-70
2022/09/15 05:31:21;;;;;;;5.60;2.60;;;;;;;21.54;70.03;153069.84;1744339;80;21003;-70
2022/09/15 05:33:49;;;;;;;7.58;2.55;;;;;;;21.57;69.72;153076.39;1740362;80;21069;-71
2022/09/15 05:36:17;;;;;;;8.28;2.27;;;;;;;21.63;68.21;153092.06;1743637;82;21480;-70
2022/09/15 05:38:44;;;;;;;7.95;2.67;;;;;;;21.78;67.34;153128.75;1746857;82;21023;-70
2022/09/15 05:41:13;;;;;;;5.30;2.50;;;;;;;22.03;66.65;153192.78;1745284;81;21806;-71
2022/09/15 05:43:40;;;;;;;9.15;2.72;;;;;;;22.25;65.21;153249.03;1745471;82;21054;-71
2022/09/15 05:46:08;;;;;;;6.67;2.90;;;;;;;22.43;64.77;153293.47;1745541;81;21483;-70
2022/09/15 05:48:35;;;;;;;9.80;3.00;;;;;;;22.56;64.50;153326.27;1745538;82;21098;-70
2022/09/15 05:51:03;;;;;;;8.48;2.90;;;;;;;22.68;64.15;153356.34;1742135;82;21038;-71
2022/09/15 05:53:30;;;;;;;6.65;2.70;;;;;;;22.83;63.34;153394.28;1718403;83;21220;-69
2022/09/15 05:56:03;;;;;;;7.25;2.90;;;;;;;22.96;62.84;153426.98;1718516;83;20943;-69
2022/09/15 05:58:30;;;;;;;7.03;3.40;;;;;;;23.11;61.71;153464.92;1718825;82;21199;-70
2022/09/15 06:00:56;;;;;;;6.85;2.98;;;;;;;23.27;61.13;153505.53;1728877;80;21258;-70
2022/09/15 06:03:23;;;;;;;7.28;2.95;;;;;;;23.41;60.75;153542.19;1711049;82;21072;-70
2022/09/15 06:05:59;;;;;;;5.20;2.70;;;;;;;23.50;59.60;153563.11;1739477;80;21153;-71
2022/09/15 06:08:32;;;;;;;7.80;2.90;;;;;;;23.49;58.19;153560.50;1739866;81;21475;-71
2022/09/15 06:11:08;;;;;;;6.17;2.83;;;;;;;23.40;57.29;153539.58;1734731;82;21090;-59
2022/09/15 06:13:35;;;;;;;4.15;2.70;;;;;;;23.33;56.47;153521.27;1735596;81;22433;-59
2022/09/15 06:16:08;;;;;;;6.72;3.08;;;;;;;23.33;56.23;153521.27;1738292;81;21052;-59
2022/09/15 06:18:36;;;;;;;6.67;2.95;;;;;;;23.34;55.94;153523.88;1736633;81;21371;-61
2022/09/15 06:21:13;;;;;;;3.90;2.40;;;;;;;23.35;55.65;153526.50;1731770;81;21085;-60
2022/09/15 06:23:41;;;;;;;5.60;2.30;;;;;;;23.37;55.30;153531.73;1756494;80;21060;-60
2022/09/15 06:26:17;;;;;;;5.33;2.72;;;;;;;23.44;55.13;153550.03;1736183;81;21305;-61
2022/09/15 06:28:53;;;;;;;8.83;2.80;;;;;;;23.67;55.21;153606.34;1715633;82;21026;-69
2022/09/15 06:31:20;;;;;;;6.67;2.80;;;;;;;24.22;54.18;153746.47;1731501;81;21236;-70
2022/09/15 06:33:57;;;;;;;6.60;2.92;;;;;;;24.52;53.32;153821.08;1735964;81;21074;-62
2022/09/15 06:36:28;;;;;;;9.88;2.92;;;;;;;24.64;53.10;153851.19;1703823;81;21203;-60
2022/09/15 06:38:55;;;;;;;10.10;2.65;;;;;;;24.61;53.11;153845.95;1747579;81;20982;-60
2022/09/15 06:41:22;;;;;;;7.85;2.90;;;;;;;24.58;52.85;153838.11;1736002;81;21062;-61
2022/09/15 06:43:49;;;;;;;6.10;2.70;;;;;;;24.55;52.26;153828.97;1747539;81;21852;-60
2022/09/15 06:46:19;;;;;;;4.37;2.67;;;;;;;24.43;52.25;153798.86;1752626;81;20998;-60
2022/09/15 06:48:46;;;;;;;5.47;2.40;;;;;;;24.27;52.16;153759.56;1750217;81;21275;-59
2022/09/15 06:51:14;;;;;;;3.83;2.42;;;;;;;24.12;52.07;153721.59;1748169;81;21077;-59
2022/09/15 06:53:40;;;;;;;6.53;2.85;;;;;;;24.02;51.92;153696.72;1748331;81;21058;-60
2022/09/15 06:56:11;;;;;;;5.47;2.70;;;;;;;24.02;52.22;153695.38;1744159;80;21355;-59
2022/09/15 06:58:39;;;;;;;7.03;2.45;;;;;;;24.09;52.38;153712.41;1741850;81;20949;-59
2022/09/15 07:01:11;;;;;;;8.18;2.77;;;;;;;24.16;52.49;153730.72;1749824;80;21256;-70
2022/09/15 07:03:40;;;;;;;7.10;2.33;;;;;;;24.21;52.68;153743.86;1748813;81;21045;-59
2022/09/15 07:06:07;;;;;;;5.83;2.50;;;;;;;24.18;52.50;153735.95;1751600;81;22058;-59
2022/09/15 07:08:34;;;;;;;4.45;2.22;;;;;;;24.15;52.81;153728.11;1746809;81;21125;-59
2022/09/15 07:11:02;;;;;;;5.55;2.40;;;;;;;24.11;53.27;153717.64;1745063;81;21420;-59
2022/09/15 07:13:30;;;;;;;6.28;2.42;;;;;;;24.10;53.79;153715.03;1746348;81;21103;-59
2022/09/15 07:15:59;;;;;;;6.35;2.40;;;;;;;24.07;53.96;153708.47;1750287;81;22029;-60
2022/09/15 07:18:27;;;;;;;5.30;2.20;;;;;;;24.12;53.53;153720.25;1749070;81;21554;-62
2022/09/15 07:21:06;;;;;;;5.28;2.70;;;;;;;24.23;53.17;153749.09;1751807;81;21828;-61
2022/09/15 07:23:34;;;;;;;4.08;2.65;;;;;;;24.34;52.80;153776.59;1749451;81;21512;-59
2022/09/15 07:26:16;;;;;;;4.72;2.45;;;;;;;24.50;52.65;153817.17;1748038;81;21066;-60
2022/09/15 07:28:46;;;;;;;4.47;2.30;;;;;;;24.60;51.89;153843.34;1749719;81;20937;-59
2022/09/15 07:31:18;;;;;;;5.08;2.22;;;;;;;24.72;51.36;153872.19;1749387;81;21077;-59
2022/09/15 07:33:45;;;;;;;4.25;2.50;;;;;;;24.84;51.12;153903.64;1748720;81;22190;-59
2022/09/15 07:36:12;;;;;;;4.75;2.40;;;;;;;24.97;50.75;153935.09;1745919;81;21501;-58
2022/09/15 07:38:41;;;;;;;4.80;2.40;;;;;;;25.09;50.73;153966.56;1746288;81;21094;-59
2022/09/15 07:41:12;;;;;;;6.97;2.60;;;;;;;25.25;50.55;154007.16;1749856;80;21029;-60
2022/09/15 07:43:39;;;;;;;4.75;2.55;;;;;;;25.32;50.79;154025.48;1749959;81;21550;-59
2022/09/15 07:46:06;;;;;;;8.28;2.80;;;;;;;25.45;50.54;154058.25;1745219;81;21149;-60
2022/09/15 07:48:33;;;;;;;5.22;2.20;;;;;;;25.57;49.80;154088.44;1745460;81;21498;-59
2022/09/15 07:51:00;;;;;;;5.62;2.35;;;;;;;25.64;49.26;154105.47;1742714;81;21052;-60
2022/09/15 07:53:28;;;;;;;6.20;2.50;;;;;;;25.71;49.15;154122.52;1748519;81;21056;-60
2022/09/15 07:55:55;;;;;;;5.03;2.33;;;;;;;25.80;49.16;154144.80;1748414;80;21460;-59
2022/09/15 07:58:22;;;;;;;4.67;2.42;;;;;;;25.89;49.01;154168.37;1745673;81;22102;-60
2022/09/15 08:00:49;;;;;;;5.65;2.33;;;;;;;25.95;48.64;154184.09;1748258;80;21109;-59
2022/09/15 08:03:16;;;;;;;4.35;2.40;;;;;;;25.92;48.41;154176.23;1745384;80;21097;-70
2022/09/15 08:05:43;;;;;;;3.60;2.45;;;;;;;25.84;48.39;154156.56;1750003;80;21621;-70
2022/09/15 08:08:10;;;;;;;3.85;2.60;;;;;;;25.78;48.78;154139.56;1747368;81;21105;-60
2022/09/15 08:10:39;;;;;;;4.00;2.50;;;;;;;25.72;48.68;154125.14;1750097;81;20978;-59
2022/09/15 08:13:07;;;;;;;5.53;2.55;;;;;;;25.60;49.04;154096.28;1743449;81;21038;-59
2022/09/15 08:15:36;;;;;;;7.20;2.80;;;;;;;25.56;49.40;154085.81;1752981;81;21411;-59
2022/09/15 08:18:04;;;;;;;6.00;2.72;;;;;;;25.57;49.33;154087.14;1746342;81;21054;-69
2022/09/15 08:20:32;;;;;;;5.28;2.80;;;;;;;25.53;49.68;154076.63;1754420;80;22591;-59
2022/09/15 08:22:59;;;;;;;6.97;2.58;;;;;;;25.58;49.66;154091.05;1743542;80;21399;-59
2022/09/15 08:25:25;;;;;;;8.30;2.60;;;;;;;25.62;49.74;154100.23;1741093;81;21087;-59
2022/09/15 08:27:53;;;;;;;2.87;2.10;;;;;;;25.64;49.50;154105.47;1731055;81;21529;-70
2022/09/15 08:30:21;;;;;;;3.58;2.50;;;;;;;25.58;49.56;154091.05;1744701;81;22365;-69
2022/09/15 08:32:48;;;;;;;7.08;2.60;;;;;;;25.49;50.02;154066.14;1747920;80;21043;-70
2022/09/15 08:35:16;;;;;;;7.95;2.12;;;;;;;25.41;50.44;154046.44;1751731;80;21564;-69
2022/09/15 08:37:42;;;;;;;5.08;2.12;;;;;;;25.42;50.18;154050.39;1737576;80;20997;-71
2022/09/15 08:40:16;;;;;;;7.70;2.02;;;;;;;25.46;50.16;154059.58;1738601;81;21043;-71
2022/09/15 08:42:44;;;;;;;7.70;2.40;;;;;;;25.57;50.17;154087.14;1744307;81;21062;-70
2022/09/15 08:45:22;;;;;;;6.42;2.42;;;;;;;25.65;50.20;154106.81;1741311;81;21584;-72
2022/09/15 08:47:54;;;;;;;4.50;2.50;;;;;;;25.70;50.27;154121.19;1739217;81;21121;-60
2022/09/15 08:50:42;;;;;;;3.72;2.30;;;;;;;25.73;50.37;154129.05;1740878;81;21086;-60
2022/09/15 08:53:27;;;;;;;4.15;2.45;;;;;;;25.76;50.49;154135.61;1739072;81;21081;-60
2022/09/15 08:55:55;;;;;;;5.70;2.27;;;;;;;25.84;50.57;154156.56;1719223;82;21489;-61
2022/09/15 08:58:33;;;;;;;7.20;2.75;;;;;;;25.89;50.30;154168.37;1742391;82;21050;-61
2022/09/15 09:01:21;;;;;;;6.85;2.33;;;;;;;25.89;50.46;154168.37;1741231;81;21241;-60
2022/09/15 09:03:57;;;;;;;6.62;1.98;;;;;;;25.88;50.48;154165.75;1736496;81;21058;-60
2022/09/15 09:07:04;;;;;;;5.22;2.52;;;;;;;25.87;50.35;154163.14;1732270;80;21030;-59
2022/09/15 09:09:51;;;;;;;2.85;2.27;;;;;;;25.89;50.57;154168.37;1733282;81;21496;-60
2022/09/15 09:12:42;;;;;;;7.47;2.62;;;;;;;25.87;50.89;154163.14;1735252;82;21016;-59
2022/09/15 09:15:33;;;;;;;4.35;2.10;;;;;;;25.89;51.08;154168.37;1708000;82;21351;-60
2022/09/15 09:18:18;;;;;;;6.70;2.33;;;;;;;25.94;51.02;154181.47;1733527;81;21133;-59
2022/09/15 09:21:21;;;;;;;7.03;2.80;;;;;;;25.98;51.09;154192.00;1749337;80;21066;-59
2022/09/15 09:23:55;;;;;;;5.78;2.95;;;;;;;25.99;51.77;154193.28;1708660;80;21023;-59
2022/09/15 09:26:23;;;;;;;9.88;3.05;;;;;;;25.98;53.14;154192.00;1737101;80;21044;-59
2022/09/15 09:29:02;;;;;;;7.83;2.72;;;;;;;25.99;53.83;154194.61;1740411;80;21496;-60
2022/09/15 09:31:29;;;;;;;6.95;3.33;;;;;;;25.99;53.88;154194.61;1724415;80;21073;-59
2022/09/15 09:34:07;;;;;;;5.05;3.08;;;;;;;26.01;54.15;154198.52;1743537;80;21662;-60
2022/09/15 09:36:34;;;;;;;5.95;3.12;;;;;;;26.02;54.38;154201.14;1741770;82;22162;-61
2022/09/15 09:39:01;;;;;;;9.40;3.15;;;;;;;26.10;54.13;154222.14;1741933;81;21048;-61
2022/09/15 09:41:37;;;;;;;6.00;3.27;;;;;;;26.18;54.26;154241.81;1742758;80;21636;-60
2022/09/15 09:44:09;;;;;;;5.28;3.05;;;;;;;26.22;54.75;154252.34;1744209;80;21108;-59
2022/09/15 09:46:36;;;;;;;3.37;2.98;;;;;;;26.26;54.79;154262.81;1747447;80;21123;-71
2022/09/15 09:49:11;;;;;;;4.95;2.60;;;;;;;26.29;54.44;154270.67;1742273;80;21076;-59
2022/09/15 09:51:58;;;;;;;4.37;2.87;;;;;;;26.31;53.22;154275.91;1737870;80;21098;-60
2022/09/15 09:54:27;;;;;;;;;;;;;;;26.39;52.76;154295.59;1747208;80;21308;-59
2022/09/15 09:56:57;;;;;;;4.87;2.92;;;;;;;26.47;52.30;154315.27;1743512;80;20246;-59
2022/09/15 09:59:39;;;;;;;5.53;3.47;;;;;;;26.47;52.47;154315.27;1742092;81;21041;-59
2022/09/15 10:02:19;;;;;;;8.05;4.30;;;;;;;26.51;53.26;154324.41;1705072;83;21070;-59
2022/09/15 10:04:48;;;;;;;9.75;4.85;;;;;;;26.52;54.28;154327.03;1739512;80;21038;-59
2022/09/15 10:07:23;;;;;;;7.20;4.50;;;;;;;26.48;55.13;154317.87;1740983;81;21712;-60
2022/09/15 10:09:59;;;;;;;;;;;;;;;26.40;55.40;154296.88;1745377;80;20978;-60
2022/09/15 10:12:40;;;;;;;10.55;3.62;;;;;;;26.35;55.31;154285.11;1728414;81;20179;-59
2022/09/15 10:15:29;;;;;;;5.62;2.80;;;;;;;26.38;55.06;154291.63;1720067;81;21091;-60
2022/09/15 10:17:55;;;;;;;11.00;3.15;;;;;;;26.43;54.64;154304.78;1741627;81;21088;-59
2022/09/15 10:20:34;;;;;;;6.60;3.60;;;;;;;26.42;54.64;154302.16;1720667;81;21244;-60
2022/09/15 10:23:17;;;;;;;9.33;3.27;;;;;;;26.42;54.95;154302.16;1739632;81;21253;-59
2022/09/15 10:25:44;;;;;;;5.92;3.02;;;;;;;26.45;55.52;154310.02;1735081;80;21052;-60
2022/09/15 10:28:20;;;;;;;7.17;3.67;;;;;;;26.42;55.97;154302.16;1745576;81;21281;-59
2022/09/15 10:31:12;;;;;;;3.47;2.33;;;;;;;26.35;55.90;154283.77;1744033;81;21047;-59
2022/09/15 10:33:41;;;;;;;3.95;2.70;;;;;;;26.26;55.43;154262.81;1744081;81;21220;-60
2022/09/15 10:36:29;;;;;;;5.42;2.72;;;;;;;26.13;55.73;154230.00;1742423;80;21076;-59
2022/09/15 10:39:22;;;;;;;10.48;2.92;;;;;;;26.02;56.14;154201.14;1735362;81;21034;-61
2022/09/15 10:42:16;;;;;;;10.08;2.80;;;;;;;25.94;56.48;154181.47;1680063;83;21017;-60
2022/09/15 10:44:57;;;;;;;6.03;2.90;;;;;;;25.91;56.49;154172.33;1734770;81;21065;-59
2022/09/15 10:47:39;;;;;;;8.65;3.25;;;;;;;25.85;56.93;154157.91;1733241;81;22809;-61
2022/09/15 10:50:25;;;;;;;12.45;3.15;;;;;;;25.85;57.29;154157.91;1730502;81;21054;-59
2022/09/15 10:53:25;;;;;;;4.55;3.20;;;;;;;25.78;57.81;154139.56;1727455;82;21529;-60
2022/09/15 10:56:31;;;;;;;8.83;3.40;;;;;;;25.71;58.38;154123.81;1718220;82;21031;-62
2022/09/15 10:59:29;;;;;;;;;;;;;;;25.69;59.18;154118.56;1731641;82;21053;-60
2022/09/15 11:02:21;;;;;;;11.38;3.95;;;;;;;25.63;59.76;154102.86;1740799;81;20798;-62
2022/09/15 11:05:29;;;;;;;13.03;3.50;;;;;;;25.60;60.66;154095.00;1693065;83;21093;-72
2022/09/15 11:08:34;;;;;;;11.20;3.60;;;;;;;25.55;62.28;154081.91;1689857;84;21041;-72
2022/09/15 11:11:45;;;;;;;6.95;3.10;;;;;;;25.41;64.38;154047.77;1706203;82;21057;-73
2022/09/15 11:14:40;;;;;;;10.72;3.37;;;;;;;25.23;66.65;154000.59;1733832;80;20931;-59
2022/09/15 11:17:39;;;;;;;11.65;3.42;;;;;;;25.03;68.45;153950.80;1730690;80;21912;-60
2022/09/15 11:20:29;;;;;;;11.83;4.40;;;;;;;24.83;70.65;153899.73;1728533;80;21081;-60
2022/09/15 11:23:01;;;;;;;10.93;4.35;;;;;;;24.59;72.20;153840.72;1693926;80;21511;-60
2022/09/15 11:25:31;;;;;;;6.87;3.55;;;;;;;24.39;73.68;153789.67;1725989;80;21033;-60
2022/09/15 11:28:19;;;;;;;13.88;4.95;;;;;;;24.26;74.23;153756.94;1721243;81;21115;-60
2022/09/15 11:30:54;;;;;;;9.08;4.20;;;;;;;24.23;74.57;153749.09;1728786;80;23263;-60
2022/09/15 11:33:29;;;;;;;9.55;3.72;;;;;;;24.25;73.88;153754.33;1729631;80;21138;-72
2022/09/15 11:36:16;;;;;;;7.15;3.47;;;;;;;24.32;72.84;153772.64;1677280;82;21028;-70
2022/09/15 11:38:54;;;;;;;6.75;3.60;;;;;;;24.41;72.33;153794.91;1732968;80;21155;-72
2022/09/15 11:41:40;;;;;;;11.40;3.92;;;;;;;24.50;72.02;153817.17;1714506;80;21332;-72
2022/09/15 11:44:19;;;;;;;9.08;3.50;;;;;;;24.60;71.46;153843.34;1726408;81;21147;-72
2022/09/15 11:47:06;;;;;;;5.62;3.30;;;;;;;24.70;69.73;153868.23;1693017;82;21561;-72
2022/09/15 11:49:56;;;;;;;11.18;3.25;;;;;;;24.82;68.42;153897.13;1728212;81;21254;-72
2022/09/15 11:52:53;;;;;;;12.37;3.58;;;;;;;24.98;67.24;153937.72;1726639;80;21154;-72